• Join FlightAware (Why Join?)
  • Login
  • US Flag 
11:07PM EDT


 

Airport Tracker/Info


-or-


 

Live Flight TrackerFlight Track Log ✈ DAL6057 ✈ 11-Jul-2013 ✈ KCMH - KDTW

Flight Track Log - Related Links

Times and Time Zones

All times are in EDT time to prevent confusion due to time zone crossing. See the DAL6057 flight status page for this flight to view local times or setup timezone preferences in your user account.

Time Position Orientation Groundspeed Altitude Reporting Facility
EDT Latitude Longitude Course Direction KTS MPH feet Rate Location/Type
07:00AM 39.9939 -82.9086 25° Northeast 166 191 1,200  Level Indianapolis Center
07:01AM 39.9967 -82.9872 273° West 193 222 3,700 2,400 Climbing Indianapolis Center
07:02AM 40.0303 -83.0272 318° Northwest 211 243 6,500 2,280 Climbing Indianapolis Center
07:03AM 40.2259 -82.7101 29° Northeast  Level FlightAware Approximate
07:03AM 40.0894 -82.9944 23° Northeast 243 280 8,400  Level Indianapolis Center
07:04AM 40.3091 -82.6507 29° Northeast  Level FlightAware Approximate
07:04AM 40.1453 -82.9256 43° Northeast 271 312 10,300  Level Indianapolis Center
07:05AM 40.3944 -82.5967 25° Northeast  Level FlightAware Approximate
07:05AM 40.2081 -82.8489 43° Northeast 296 341 12,000  Level Indianapolis Center
07:06AM 40.2772 -82.7642 43° Northeast 327 376 12,900 420 Climbing Indianapolis Center
07:07AM 40.3536 -82.6711 43° Northeast 363 418 12,900  Level Indianapolis Center
07:08AM 40.4303 -82.5833 41° Northeast 366 421 12,900  Level Indianapolis Center
07:09AM 40.5233 -82.5422 19° North 352 405 12,900  Level Indianapolis Center
07:10AM 40.6167 -82.5006 19° North 351 404 12,900  Level Indianapolis Center
07:11AM 40.7103 -82.4572 19° North 353 406 12,900  Level Indianapolis Center
07:12AM 40.8050 -82.4153 19° North 355 409 13,000  Climbing Indianapolis Center
07:13AM 40.8992 -82.3853 14° North 353 406 13,000  Level Cleveland Center
07:14AM 40.9903 -82.4261 341° North 328 377 13,000  Level Cleveland Center
07:15AM 41.0772 -82.4700 339° North 333 383 13,000  Level Cleveland Center
07:16AM 41.1558 -82.5081 340° North 338 389 13,000  Level Cleveland Center
07:18AM 41.3314 -82.5936 340° North 333 383 13,000  Level Cleveland Center
07:19AM 41.4203 -82.6350 341° North 333 383 13,000 -120 Level Cleveland Center
07:20AM 41.5072 -82.6767 340° North 328 377 12,800 -540 Descending Cleveland Center
07:21AM 41.5942 -82.7156 342° North 339 390 12,000 -480 Descending Cleveland Center
07:22AM 41.6850 -82.7603 340° North 334 384 12,000 -240 Level Cleveland Center
07:23AM 41.7464 -82.8181 325° Northwest 301 346 11,600 -960 Descending Cleveland Center
07:24AM 41.7844 -82.8917 305° West 265 305 10,200 -1,380 Descending Cleveland Center
07:25AM 41.8247 -82.9711 304° West 250 288 9,200 -960 Descending Cleveland Center
07:26AM 41.8644 -83.0564 302° West 264 304 8,300 -1,020 Descending Cleveland Center
07:27AM 41.8939 -83.1411 295° West 256 295 7,000 -1,140 Descending Cleveland Center
07:28AM 41.9211 -83.2231 294° West 245 282 6,100 -660 Descending Cleveland Center
07:29AM 41.9461 -83.3164 290° West 260 299 5,800 -840 Descending Cleveland Center
07:30AM 41.9692 -83.3928 292° West 238 274 4,600 -900 Descending Cleveland Center
07:31AM 42.0078 -83.4336 322° Northwest 180 207 4,100 -600 Descending Cleveland Center
07:32AM 42.0558 -83.4303 North 169 194 3,400 -720 Descending Cleveland Center